createdAt,value
2022-08-11T00:02:36.422Z,100809.78
2022-08-11T00:05:09.987Z,100809.28
2022-08-11T00:07:45.217Z,100798.13
2022-08-11T00:10:18.119Z,100801.00
2022-08-11T00:12:53.480Z,100794.16
2022-08-11T00:15:23.066Z,100796.88
2022-08-11T00:17:58.688Z,100803.22
2022-08-11T00:20:32.703Z,100795.75
2022-08-11T00:23:06.095Z,100798.38
2022-08-11T00:25:41.597Z,100804.66
2022-08-11T00:28:27.736Z,100796.84
2022-08-11T00:30:59.433Z,100790.00
2022-08-11T00:33:44.105Z,100793.78
2022-08-11T00:36:18.910Z,100797.69
2022-08-11T00:38:54.115Z,100788.22
2022-08-11T00:41:33.908Z,100792.84
2022-08-11T00:44:24.835Z,100792.22
2022-08-11T00:47:03.502Z,100797.63
2022-08-11T00:49:49.019Z,100793.34
2022-08-11T00:52:34.617Z,100801.38
2022-08-11T00:55:47.273Z,100801.84
2022-08-11T00:58:58.996Z,100799.38
2022-08-11T01:01:38.828Z,100789.25
2022-08-11T01:04:53.695Z,100804.25
2022-08-11T01:08:15.576Z,100806.88
2022-08-11T01:11:00.532Z,100801.03
2022-08-11T01:13:56.998Z,100810.03
2022-08-11T01:17:05.608Z,100801.13
2022-08-11T01:20:39.451Z,100799.53
2022-08-11T01:23:36.277Z,100807.56
2022-08-11T01:27:19.000Z,100812.06
2022-08-11T01:30:19.725Z,100812.19
2022-08-11T01:33:20.150Z,100817.34
2022-08-11T01:36:28.175Z,100807.97
2022-08-11T01:39:17.867Z,100809.03
2022-08-11T01:42:24.497Z,100801.47
2022-08-11T01:45:17.909Z,100809.78
2022-08-11T01:47:54.498Z,100806.53
2022-08-11T01:50:32.592Z,100807.78
2022-08-11T01:53:11.975Z,100810.75
2022-08-11T01:55:51.060Z,100811.91
2022-08-11T01:58:43.621Z,100816.44
2022-08-11T02:01:25.663Z,100808.81
2022-08-11T02:03:59.759Z,100808.00
2022-08-11T02:06:56.371Z,100809.84
2022-08-11T02:09:49.376Z,100802.22
2022-08-11T02:12:33.666Z,100799.75
2022-08-11T02:15:08.760Z,100798.22
2022-08-11T02:17:55.440Z,100806.09
2022-08-11T02:20:46.459Z,100806.97
2022-08-11T02:24:05.955Z,100815.13
2022-08-11T02:26:41.156Z,100809.03
2022-08-11T02:29:18.161Z,100805.75
2022-08-11T02:32:28.614Z,100804.09
2022-08-11T02:35:09.712Z,100801.72
2022-08-11T02:37:51.856Z,100799.31
2022-08-11T02:40:32.433Z,100800.16
2022-08-11T02:43:12.764Z,100796.63
2022-08-11T02:45:55.024Z,100798.16
2022-08-11T02:48:55.254Z,100798.09
2022-08-11T02:51:41.797Z,100794.97
2022-08-11T02:54:18.749Z,100807.34
2022-08-11T02:56:54.251Z,100814.41
2022-08-11T02:59:53.726Z,100810.38
2022-08-11T03:02:49.922Z,100817.53
2022-08-11T03:05:35.155Z,100808.03
2022-08-11T03:08:20.270Z,100807.84
2022-08-11T03:11:10.523Z,100809.44
2022-08-11T03:14:02.499Z,100804.13
2022-08-11T03:16:48.531Z,100812.91
2022-08-11T03:19:26.926Z,100813.97
2022-08-11T03:22:06.889Z,100810.72
2022-08-11T03:24:48.226Z,100809.16
2022-08-11T03:27:30.555Z,100816.22
2022-08-11T03:30:09.547Z,100807.53
2022-08-11T03:33:12.454Z,100811.50
2022-08-11T03:35:45.594Z,100812.81
2022-08-11T03:38:17.804Z,100816.00
2022-08-11T03:42:01.418Z,100813.38
2022-08-11T03:44:12.891Z,100822.28
2022-08-11T03:47:08.166Z,100822.13
2022-08-11T03:49:53.990Z,100819.44
2022-08-11T03:52:29.873Z,100821.50
2022-08-11T03:55:11.627Z,100822.53
2022-08-11T03:58:19.084Z,100821.56
2022-08-11T04:01:20.473Z,100820.63
2022-08-11T04:04:29.480Z,100825.94
2022-08-11T04:07:37.437Z,100824.03
2022-08-11T04:10:33.294Z,100815.91
2022-08-11T04:13:43.337Z,100813.06
2022-08-11T04:16:24.680Z,100815.53
2022-08-11T04:19:33.764Z,100811.81
2022-08-11T04:22:35.275Z,100813.28
2022-08-11T04:25:57.828Z,100817.66
2022-08-11T04:29:01.148Z,100813.94
2022-08-11T04:31:44.439Z,100818.84
2022-08-11T04:34:58.528Z,100812.34
2022-08-11T04:37:53.457Z,100811.25
2022-08-11T04:40:51.344Z,100824.94
2022-08-11T04:44:05.514Z,100830.69
2022-08-11T04:46:58.833Z,100825.03
2022-08-11T04:50:09.130Z,100822.88
2022-08-11T04:53:39.928Z,100832.84
2022-08-11T04:56:35.344Z,100832.31
2022-08-11T04:59:49.797Z,100833.63
2022-08-11T05:03:05.612Z,100833.97
2022-08-11T05:05:57.206Z,100839.28
2022-08-11T05:09:03.018Z,100843.13
2022-08-11T05:12:01.989Z,100833.47
2022-08-11T05:14:54.983Z,100833.59
2022-08-11T05:17:46.518Z,100831.03
2022-08-11T05:20:33.479Z,100830.34
2022-08-11T05:23:24.323Z,100836.81
2022-08-11T05:26:47.574Z,100845.63
2022-08-11T05:29:44.719Z,100840.22
2022-08-11T05:32:35.191Z,100838.97
2022-08-11T05:35:07.654Z,100836.06
2022-08-11T05:37:57.504Z,100839.69
2022-08-11T05:40:51.101Z,100832.94
2022-08-11T05:44:21.628Z,100826.66
2022-08-11T05:46:58.302Z,100834.41
2022-08-11T05:49:49.426Z,100829.56
2022-08-11T05:52:41.753Z,100837.41
2022-08-11T05:55:28.771Z,100836.38
2022-08-11T05:58:00.897Z,100843.09
2022-08-11T06:00:30.661Z,100838.59
2022-08-11T06:03:07.570Z,100833.91
2022-08-11T06:05:43.405Z,100840.97
2022-08-11T06:08:14.360Z,100843.06
2022-08-11T06:10:45.676Z,100841.72
2022-08-11T06:13:18.172Z,100835.72
2022-08-11T06:15:48.836Z,100831.34
2022-08-11T06:18:19.753Z,100835.44
2022-08-11T06:20:50.501Z,100834.84
2022-08-11T06:23:24.018Z,100830.75
2022-08-11T06:25:56.301Z,100830.56
2022-08-11T06:28:32.735Z,100834.41
2022-08-11T06:31:03.800Z,100835.66
2022-08-11T06:33:39.893Z,100835.22
2022-08-11T06:36:15.832Z,100842.03
2022-08-11T06:38:55.206Z,100837.44
2022-08-11T06:41:33.299Z,100837.09
2022-08-11T06:44:10.693Z,100832.31
2022-08-11T06:46:42.237Z,100830.47
2022-08-11T06:49:28.785Z,100828.31
2022-08-11T06:52:01.743Z,100842.22
2022-08-11T06:54:35.469Z,100838.38
2022-08-11T06:57:29.919Z,100836.25
2022-08-11T07:00:17.868Z,100832.22
2022-08-11T07:02:53.468Z,100834.59
2022-08-11T07:05:28.809Z,100830.38
2022-08-11T07:08:44.542Z,100831.75
2022-08-11T07:11:46.095Z,100825.44
2022-08-11T07:14:47.791Z,100823.78
2022-08-11T07:17:21.209Z,100821.09
2022-08-11T07:20:12.672Z,100820.72
2022-08-11T07:23:02.238Z,100811.59
2022-08-11T07:25:50.706Z,100820.00
2022-08-11T07:28:43.166Z,100814.84
2022-08-11T07:31:16.109Z,100821.41
2022-08-11T07:34:08.454Z,100819.78
2022-08-11T07:36:41.787Z,100812.84
2022-08-11T07:39:18.992Z,100815.94
2022-08-11T07:41:50.254Z,100828.72
2022-08-11T07:44:19.637Z,100827.97
2022-08-11T07:47:08.593Z,100823.16
2022-08-11T07:49:56.349Z,100824.84
2022-08-11T07:52:30.642Z,100821.13
2022-08-11T07:55:03.202Z,100818.94
2022-08-11T07:58:14.722Z,100819.44
2022-08-11T08:01:01.068Z,100817.53
2022-08-11T08:03:54.215Z,100814.03
2022-08-11T08:06:42.078Z,100811.59
2022-08-11T08:09:28.936Z,100817.47
2022-08-11T08:12:19.475Z,100812.78
2022-08-11T08:15:06.303Z,100812.91
2022-08-11T08:18:25.412Z,100814.13
2022-08-11T08:20:50.108Z,100803.25
2022-08-11T08:23:33.892Z,100799.94
2022-08-11T08:26:27.269Z,100801.31
2022-08-11T08:29:20.537Z,100799.81
2022-08-11T08:31:49.842Z,100798.94
2022-08-11T08:34:20.480Z,100810.44
2022-08-11T08:36:51.511Z,100809.91
2022-08-11T08:39:21.949Z,100807.13
2022-08-11T08:41:54.479Z,100795.63
2022-08-11T08:44:43.552Z,100801.78
2022-08-11T08:47:41.750Z,100799.25
2022-08-11T08:50:09.879Z,100801.41
2022-08-11T08:52:51.597Z,100807.16
2022-08-11T08:55:22.347Z,100802.56
2022-08-11T08:57:54.033Z,100788.16
2022-08-11T09:00:24.319Z,100799.88
2022-08-11T09:02:54.117Z,100795.28
2022-08-11T09:05:26.150Z,100802.66
2022-08-11T09:07:58.321Z,100799.16
2022-08-11T09:10:30.547Z,100789.16
2022-08-11T09:13:01.933Z,100795.03
2022-08-11T09:15:32.244Z,100793.31
2022-08-11T09:18:06.261Z,100786.50
2022-08-11T09:20:37.467Z,100794.97
2022-08-11T09:24:07.339Z,100792.56
2022-08-11T09:26:34.859Z,100786.44
2022-08-11T09:29:04.758Z,100785.41
2022-08-11T09:31:39.608Z,100782.50
2022-08-11T09:34:10.360Z,100791.41
2022-08-11T09:36:58.815Z,100783.50
2022-08-11T09:39:47.262Z,100775.50
2022-08-11T09:42:23.558Z,100775.50
2022-08-11T09:44:53.501Z,100769.03
2022-08-11T09:47:26.351Z,100766.50
2022-08-11T09:50:00.937Z,100758.88
2022-08-11T09:52:33.568Z,100752.66
2022-08-11T09:55:05.235Z,100751.56
2022-08-11T09:57:51.362Z,100746.41
2022-08-11T10:00:21.882Z,100756.09
2022-08-11T10:02:54.775Z,100754.78
2022-08-11T10:05:42.159Z,100755.94
2022-08-11T10:08:17.218Z,100755.94
2022-08-11T10:10:48.512Z,100745.88
2022-08-11T10:14:31.090Z,100754.69
2022-08-11T10:16:15.940Z,100742.25
2022-08-11T10:18:53.507Z,100754.25
2022-08-11T10:21:30.232Z,100776.53
2022-08-11T10:24:19.376Z,100775.56
2022-08-11T10:26:55.779Z,100780.09
2022-08-11T10:29:49.820Z,100777.69
2022-08-11T10:32:46.393Z,100785.41
2022-08-11T10:35:31.126Z,100785.78
2022-08-11T10:38:08.222Z,100799.22
2022-08-11T10:40:41.390Z,100799.00
2022-08-11T10:43:18.092Z,100776.47
2022-08-11T10:46:30.167Z,100772.63
2022-08-11T10:49:00.357Z,100754.19
2022-08-11T10:51:52.133Z,100757.59
2022-08-11T10:54:41.198Z,100749.34
2022-08-11T10:57:28.398Z,100741.16
2022-08-11T10:59:58.381Z,100733.94
2022-08-11T11:02:28.848Z,100731.28
2022-08-11T11:05:09.487Z,100723.72
2022-08-11T11:07:44.795Z,100732.59
2022-08-11T11:10:14.088Z,100743.47
2022-08-11T11:13:03.399Z,100750.84
2022-08-11T11:15:53.806Z,100751.59
2022-08-11T11:18:25.385Z,100745.09
2022-08-11T11:20:58.869Z,100747.47
2022-08-11T11:23:35.367Z,100743.09
2022-08-11T11:26:29.159Z,100740.72
2022-08-11T11:29:28.321Z,100735.72
2022-08-11T11:32:31.346Z,100734.81
2022-08-11T11:35:19.484Z,100732.97
2022-08-11T11:38:00.954Z,100736.13
2022-08-11T11:40:37.653Z,100741.97
2022-08-11T11:43:07.177Z,100731.84
2022-08-11T11:45:37.673Z,100731.75
2022-08-11T11:48:07.751Z,100731.81
2022-08-11T11:50:39.412Z,100719.66
2022-08-11T11:53:11.198Z,100708.81
2022-08-11T11:55:44.375Z,100693.41
2022-08-11T11:58:32.129Z,100687.59
2022-08-11T12:01:20.297Z,100703.13
2022-08-11T12:03:52.877Z,100707.66
2022-08-11T12:06:25.490Z,100711.06
2022-08-11T12:08:56.749Z,100712.19
2022-08-11T12:11:45.843Z,100703.41
2022-08-11T12:14:18.534Z,100702.72
2022-08-11T12:16:49.020Z,100709.13
2022-08-11T12:19:21.642Z,100701.81
2022-08-11T12:22:08.781Z,100705.75
2022-08-11T12:24:56.942Z,100698.47
2022-08-11T12:27:33.566Z,100692.31
2022-08-11T12:30:09.875Z,100692.28
2022-08-11T12:32:41.360Z,100684.13
2022-08-11T12:35:11.619Z,100680.84
2022-08-11T12:37:43.818Z,100677.69
2022-08-11T12:40:42.907Z,100676.56
2022-08-11T12:43:56.696Z,100680.59
2022-08-11T12:46:32.186Z,100667.69
2022-08-11T12:49:24.839Z,100676.56
2022-08-11T12:52:13.965Z,100662.69
2022-08-11T12:54:52.382Z,100669.94
2022-08-11T12:57:42.106Z,100661.59
2022-08-11T13:00:31.300Z,100658.09
2022-08-11T13:03:18.190Z,100646.09
2022-08-11T13:05:49.927Z,100642.19
2022-08-11T13:08:19.586Z,100636.97
2022-08-11T13:11:08.644Z,100642.03
2022-08-11T13:13:54.340Z,100640.66
2022-08-11T13:16:30.615Z,100648.03
2022-08-11T13:19:01.598Z,100652.13
2022-08-11T13:21:31.398Z,100647.44
2022-08-11T13:24:03.495Z,100654.53
2022-08-11T13:26:43.363Z,100666.69
2022-08-11T13:29:20.186Z,100679.41
2022-08-11T13:31:51.178Z,100701.03
2022-08-11T13:34:21.762Z,100715.44
2022-08-11T13:36:53.339Z,100727.41
2022-08-11T13:39:24.644Z,100747.78
2022-08-11T13:42:03.656Z,100707.97
2022-08-11T13:44:47.196Z,100700.66
2022-08-11T13:47:18.315Z,100685.97
2022-08-11T13:49:48.205Z,100686.16
2022-08-11T13:52:18.066Z,100681.47
2022-08-11T13:54:49.587Z,100674.75
2022-08-11T13:58:08.981Z,100675.63
2022-08-11T14:00:27.642Z,100666.63
2022-08-11T14:02:59.755Z,100667.31
2022-08-11T14:05:30.838Z,100670.81
2022-08-11T14:08:03.573Z,100665.06
2022-08-11T14:10:39.507Z,100664.41
2022-08-11T14:13:42.290Z,100676.06
2022-08-11T14:16:21.631Z,100667.25
2022-08-11T14:18:56.401Z,100659.75
2022-08-11T14:21:44.630Z,100662.03
2022-08-11T14:24:13.940Z,100654.81
2022-08-11T14:26:44.650Z,100654.72
2022-08-11T14:29:15.751Z,100650.28
2022-08-11T14:31:49.647Z,100654.44
2022-08-11T14:34:22.705Z,100649.47
2022-08-11T14:36:54.194Z,100653.72
2022-08-11T14:39:26.035Z,100649.34
2022-08-11T14:42:14.962Z,100652.50
2022-08-11T14:45:18.556Z,100650.16
2022-08-11T14:47:52.536Z,100644.47
2022-08-11T14:50:24.964Z,100649.69
2022-08-11T14:52:56.802Z,100640.31
2022-08-11T14:55:46.215Z,100641.28
2022-08-11T14:58:18.221Z,100641.03
2022-08-11T15:00:48.108Z,100636.06
2022-08-11T15:03:17.825Z,100641.53
2022-08-11T15:05:54.211Z,100631.34
2022-08-11T15:08:54.910Z,100629.47
2022-08-11T15:11:43.731Z,100628.00
2022-08-11T15:14:13.949Z,100624.19
2022-08-11T15:17:02.759Z,100624.50
2022-08-11T15:19:40.300Z,100633.03
2022-08-11T15:22:29.292Z,100627.56
2022-08-11T15:25:00.309Z,100632.94
2022-08-11T15:27:49.993Z,100616.09
2022-08-11T15:30:36.662Z,100613.91
2022-08-11T15:33:25.860Z,100622.19
2022-08-11T15:36:29.130Z,100625.09
2022-08-11T15:39:02.692Z,100619.00
2022-08-11T15:41:58.506Z,100626.03
2022-08-11T15:45:06.049Z,100627.03
2022-08-11T15:47:41.625Z,100624.84
2022-08-11T15:50:16.032Z,100627.25
2022-08-11T15:52:54.145Z,100615.25
2022-08-11T15:55:27.299Z,100603.22
2022-08-11T15:58:21.735Z,100594.47
2022-08-11T16:01:13.132Z,100603.97
2022-08-11T16:04:09.169Z,100605.66
2022-08-11T16:06:47.819Z,100608.22
2022-08-11T16:09:25.210Z,100605.91
2022-08-11T16:12:03.215Z,100611.50
2022-08-11T16:14:55.415Z,100608.38
2022-08-11T16:17:30.732Z,100604.00
2022-08-11T16:20:01.747Z,100603.25
2022-08-11T16:22:38.442Z,100607.84
2022-08-11T16:27:01.455Z,100601.75
2022-08-11T16:28:13.985Z,100603.44
2022-08-11T16:30:47.032Z,100593.72
2022-08-11T16:33:47.947Z,100606.28
2022-08-11T16:36:25.461Z,100608.50
2022-08-11T16:38:57.867Z,100607.13
2022-08-11T16:41:47.933Z,100621.44
2022-08-11T16:44:38.289Z,100616.31
2022-08-11T16:47:09.698Z,100614.13
2022-08-11T16:49:50.612Z,100615.72
2022-08-11T16:52:25.942Z,100621.66
2022-08-11T16:54:55.204Z,100623.38
2022-08-11T16:57:45.862Z,100618.19
2022-08-11T17:00:19.655Z,100624.94
2022-08-11T17:03:09.892Z,100625.19
2022-08-11T17:06:02.150Z,100619.34
2022-08-11T17:08:56.908Z,100614.03
2022-08-11T17:11:46.685Z,100606.44
2022-08-11T17:14:35.427Z,100610.06
2022-08-11T17:17:12.841Z,100603.97
2022-08-11T17:20:40.287Z,100605.91
2022-08-11T17:22:59.889Z,100606.59
2022-08-11T17:25:59.599Z,100604.66
2022-08-11T17:28:24.435Z,100604.44
2022-08-11T17:31:19.916Z,100607.31
2022-08-11T17:34:11.540Z,100597.84
2022-08-11T17:36:45.744Z,100597.03
2022-08-11T17:39:16.783Z,100596.63
2022-08-11T17:42:04.465Z,100604.13
2022-08-11T17:44:53.707Z,100607.09
2022-08-11T17:47:40.571Z,100607.34
2022-08-11T17:50:17.008Z,100604.78
2022-08-11T17:53:05.530Z,100600.44
2022-08-11T17:55:54.961Z,100599.69
2022-08-11T17:58:43.499Z,100602.34
2022-08-11T18:01:13.180Z,100605.22
2022-08-11T18:03:53.212Z,100604.28
2022-08-11T18:06:34.513Z,100609.81
2022-08-11T18:09:27.215Z,100600.66
2022-08-11T18:12:16.369Z,100612.38
2022-08-11T18:15:07.595Z,100612.69
2022-08-11T18:17:54.616Z,100607.63
2022-08-11T18:20:42.195Z,100614.34
2022-08-11T18:23:46.342Z,100609.56
2022-08-11T18:26:39.515Z,100612.59
2022-08-11T18:29:27.636Z,100615.63
2022-08-11T18:32:22.155Z,100616.69
2022-08-11T18:35:13.900Z,100618.22
2022-08-11T18:38:06.472Z,100617.69
2022-08-11T18:40:56.329Z,100618.75
2022-08-11T18:43:46.533Z,100618.66
2022-08-11T18:46:36.998Z,100617.16
2022-08-11T18:49:33.140Z,100615.50
2022-08-11T18:52:36.569Z,100617.81
2022-08-11T18:55:28.942Z,100620.81
2022-08-11T18:58:21.925Z,100621.13
2022-08-11T19:01:10.323Z,100622.19
2022-08-11T19:03:56.976Z,100620.59
2022-08-11T19:06:58.785Z,100622.00
2022-08-11T19:09:47.507Z,100628.38
2022-08-11T19:12:34.108Z,100622.03
2022-08-11T19:15:23.785Z,100628.91
2022-08-11T19:18:12.222Z,100625.28
2022-08-11T19:21:01.510Z,100628.06
2022-08-11T19:23:52.632Z,100621.34
2022-08-11T19:26:40.288Z,100635.44
2022-08-11T19:30:07.415Z,100633.13
2022-08-11T19:32:35.605Z,100634.28
2022-08-11T19:35:23.119Z,100633.97
2022-08-11T19:38:11.274Z,100628.06
2022-08-11T19:40:58.807Z,100635.50
2022-08-11T19:43:49.409Z,100629.13
2022-08-11T19:46:38.624Z,100624.03
2022-08-11T19:49:28.418Z,100635.94
2022-08-11T19:52:16.301Z,100644.66
2022-08-11T19:55:03.409Z,100635.53
2022-08-11T19:57:51.177Z,100632.09
2022-08-11T20:00:40.249Z,100630.22
2022-08-11T20:03:28.486Z,100632.09
2022-08-11T20:06:19.480Z,100621.91
2022-08-11T20:09:08.156Z,100622.97
2022-08-11T20:11:58.537Z,100624.66
2022-08-11T20:14:48.982Z,100629.66
2022-08-11T20:17:36.572Z,100624.63
2022-08-11T20:20:26.216Z,100627.50
2022-08-11T20:23:18.341Z,100621.63
2022-08-11T20:26:29.679Z,100621.84
2022-08-11T20:29:14.608Z,100627.56
2022-08-11T20:32:01.693Z,100629.66
2022-08-11T20:34:55.177Z,100621.94
2022-08-11T20:37:42.308Z,100626.69
2022-08-11T20:40:30.853Z,100633.88
2022-08-11T20:44:06.001Z,100633.25
2022-08-11T20:46:25.829Z,100625.31
2022-08-11T20:49:14.289Z,100635.06
2022-08-11T20:52:06.003Z,100628.25
2022-08-11T20:54:53.571Z,100616.69
2022-08-11T20:58:03.797Z,100624.09
2022-08-11T21:00:49.793Z,100618.25
2022-08-11T21:03:52.303Z,100616.00
2022-08-11T21:06:45.359Z,100623.00
2022-08-11T21:09:58.806Z,100628.94
2022-08-11T21:12:42.589Z,100625.38
2022-08-11T21:15:47.069Z,100624.31
2022-08-11T21:18:36.485Z,100612.84
2022-08-11T21:21:26.628Z,100619.75
2022-08-11T21:24:15.740Z,100620.63
2022-08-11T21:27:05.420Z,100620.81
2022-08-11T21:29:56.276Z,100623.06
2022-08-11T21:32:45.182Z,100633.56
2022-08-11T21:35:31.451Z,100641.34
2022-08-11T21:38:20.307Z,100635.88
2022-08-11T21:41:10.340Z,100633.09
2022-08-11T21:43:59.378Z,100630.38
2022-08-11T21:46:48.713Z,100634.94
2022-08-11T21:49:37.285Z,100635.88
2022-08-11T21:52:24.013Z,100640.97
2022-08-11T21:55:12.309Z,100636.63
2022-08-11T21:58:02.513Z,100633.88
2022-08-11T22:00:49.216Z,100637.19
2022-08-11T22:03:49.324Z,100632.19
2022-08-11T22:06:37.655Z,100628.25
2022-08-11T22:09:23.943Z,100632.28
2022-08-11T22:12:35.196Z,100629.94
2022-08-11T22:15:16.892Z,100626.75
2022-08-11T22:18:03.605Z,100623.91
2022-08-11T22:20:52.142Z,100624.88
2022-08-11T22:23:39.750Z,100613.47
2022-08-11T22:26:28.036Z,100613.13
2022-08-11T22:29:14.508Z,100620.91
2022-08-11T22:32:01.296Z,100615.22
2022-08-11T22:34:53.409Z,100620.84
2022-08-11T22:37:43.050Z,100619.31
2022-08-11T22:40:30.705Z,100615.84
2022-08-11T22:43:17.639Z,100614.31
2022-08-11T22:46:04.212Z,100613.38
2022-08-11T22:48:52.221Z,100610.81
2022-08-11T22:51:40.000Z,100610.34
2022-08-11T22:54:28.642Z,100608.56
2022-08-11T22:57:18.498Z,100610.34
2022-08-11T23:00:05.628Z,100610.06
2022-08-11T23:02:55.154Z,100606.16
2022-08-11T23:05:43.261Z,100612.22
2022-08-11T23:08:29.940Z,100618.28
2022-08-11T23:11:19.427Z,100602.09
2022-08-11T23:14:06.895Z,100606.25
2022-08-11T23:16:53.535Z,100608.78
2022-08-11T23:20:01.593Z,100601.59
2022-08-11T23:22:56.907Z,100601.59
2022-08-11T23:25:46.087Z,100600.63
2022-08-11T23:28:35.240Z,100603.69
2022-08-11T23:31:23.146Z,100597.06
2022-08-11T23:34:37.040Z,100601.97
2022-08-11T23:37:22.533Z,100596.88
2022-08-11T23:40:09.495Z,100603.59
2022-08-11T23:42:56.375Z,100597.94
2022-08-11T23:45:45.110Z,100594.59
2022-08-11T23:48:34.451Z,100591.69
2022-08-11T23:51:22.458Z,100594.59
2022-08-11T23:54:09.217Z,100591.03
2022-08-11T23:56:55.956Z,100587.84
2022-08-11T23:59:43.330Z,100589.72
